Terminal Aerodrome Forecast
Issued by NWS Tuscon, AZ

Home | Current Version | Previous Version | Text Only | Print | Product List | Glossary On
Versions: 1 2 3 4 5 6 7 8 9 10 11 12 13 14
000
FTUS45 KTWC 290500
TAFTUS
TAF
KTUS 290536Z 2906/3006 23006KT P6SM BKN140 OVC250
     FM290900 14007KT P6SM BKN130 OVC200
     FM291700 13012G20KT P6SM BKN100 OVC150
     FM300200 11009KT P6SM BKN070 OVC120=

USA.gov is the U.S. government's official web portal to all federal, state and local government web resources and services.